sensor_id;sensor_type;location;lat;lon;timestamp;temperature;humidity
15556;DHT22;7879;48.660;9.116;2023-07-28T00:00:52;16.00;99.90
15556;DHT22;7879;48.660;9.116;2023-07-28T00:03:19;15.90;99.90
15556;DHT22;7879;48.660;9.116;2023-07-28T00:05:46;15.90;99.90
15556;DHT22;7879;48.660;9.116;2023-07-28T00:08:12;15.90;99.90
15556;DHT22;7879;48.660;9.116;2023-07-28T00:10:40;15.80;99.90
15556;DHT22;7879;48.660;9.116;2023-07-28T00:13:08;15.80;99.90
15556;DHT22;7879;48.660;9.116;2023-07-28T00:15:35;15.80;99.90
15556;DHT22;7879;48.660;9.116;2023-07-28T00:18:02;15.80;99.90
15556;DHT22;7879;48.660;9.116;2023-07-28T00:20:29;15.70;99.90
15556;DHT22;7879;48.660;9.116;2023-07-28T00:22:55;15.70;99.90
15556;DHT22;7879;48.660;9.116;2023-07-28T00:25:22;15.60;99.90
15556;DHT22;7879;48.660;9.116;2023-07-28T00:27:49;15.60;99.90
15556;DHT22;7879;48.660;9.116;2023-07-28T00:30:16;15.60;99.90
15556;DHT22;7879;48.660;9.116;2023-07-28T00:32:43;15.60;99.90
15556;DHT22;7879;48.660;9.116;2023-07-28T00:35:10;15.50;99.90
15556;DHT22;7879;48.660;9.116;2023-07-28T00:37:37;15.50;99.90
15556;DHT22;7879;48.660;9.116;2023-07-28T00:40:06;15.50;99.90
15556;DHT22;7879;48.660;9.116;2023-07-28T00:42:33;15.50;99.90
15556;DHT22;7879;48.660;9.116;2023-07-28T00:45:03;15.50;99.90
15556;DHT22;7879;48.660;9.116;2023-07-28T00:47:30;15.40;99.90
15556;DHT22;7879;48.660;9.116;2023-07-28T00:49:57;15.40;99.90
15556;DHT22;7879;48.660;9.116;2023-07-28T00:52:24;15.40;99.90
15556;DHT22;7879;48.660;9.116;2023-07-28T00:54:51;15.40;99.90
15556;DHT22;7879;48.660;9.116;2023-07-28T00:57:17;15.40;99.90
15556;DHT22;7879;48.660;9.116;2023-07-28T00:59:45;15.40;99.90
15556;DHT22;7879;48.660;9.116;2023-07-28T01:02:16;15.30;99.90
15556;DHT22;7879;48.660;9.116;2023-07-28T01:04:43;15.30;99.90
15556;DHT22;7879;48.660;9.116;2023-07-28T01:07:16;15.20;99.90
15556;DHT22;7879;48.660;9.116;2023-07-28T01:09:51;15.10;99.90
15556;DHT22;7879;48.660;9.116;2023-07-28T01:12:19;15.10;99.90
15556;DHT22;7879;48.660;9.116;2023-07-28T01:14:46;15.10;99.90
15556;DHT22;7879;48.660;9.116;2023-07-28T01:17:12;15.10;99.90
15556;DHT22;7879;48.660;9.116;2023-07-28T01:19:39;15.00;99.90
15556;DHT22;7879;48.660;9.116;2023-07-28T01:22:37;15.00;99.90
15556;DHT22;7879;48.660;9.116;2023-07-28T01:27:41;14.90;99.90
15556;DHT22;7879;48.660;9.116;2023-07-28T01:30:10;14.90;99.90
15556;DHT22;7879;48.660;9.116;2023-07-28T01:32:37;14.80;99.90
15556;DHT22;7879;48.660;9.116;2023-07-28T01:35:05;14.80;99.90
15556;DHT22;7879;48.660;9.116;2023-07-28T01:37:32;14.80;99.90
15556;DHT22;7879;48.660;9.116;2023-07-28T01:39:58;14.80;99.90
15556;DHT22;7879;48.660;9.116;2023-07-28T01:42:25;14.80;99.90
15556;DHT22;7879;48.660;9.116;2023-07-28T01:44:52;14.80;99.90
15556;DHT22;7879;48.660;9.116;2023-07-28T01:47:18;14.70;99.90
15556;DHT22;7879;48.660;9.116;2023-07-28T01:49:45;14.70;99.90
15556;DHT22;7879;48.660;9.116;2023-07-28T01:52:12;14.70;99.90
15556;DHT22;7879;48.660;9.116;2023-07-28T01:54:39;14.70;99.90
15556;DHT22;7879;48.660;9.116;2023-07-28T01:57:06;14.70;99.90
15556;DHT22;7879;48.660;9.116;2023-07-28T01:59:33;14.70;99.90
15556;DHT22;7879;48.660;9.116;2023-07-28T02:02:00;14.60;99.90
15556;DHT22;7879;48.660;9.116;2023-07-28T02:04:26;14.50;99.90
15556;DHT22;7879;48.660;9.116;2023-07-28T02:06:53;14.50;99.90
15556;DHT22;7879;48.660;9.116;2023-07-28T02:09:20;14.50;99.90
15556;DHT22;7879;48.660;9.116;2023-07-28T02:11:47;14.50;99.90
15556;DHT22;7879;48.660;9.116;2023-07-28T02:14:13;14.40;99.90
15556;DHT22;7879;48.660;9.116;2023-07-28T02:16:40;14.40;99.90
15556;DHT22;7879;48.660;9.116;2023-07-28T02:19:07;14.50;99.90
15556;DHT22;7879;48.660;9.116;2023-07-28T02:21:34;14.40;99.90
15556;DHT22;7879;48.660;9.116;2023-07-28T02:24:01;14.40;99.90
15556;DHT22;7879;48.660;9.116;2023-07-28T02:26:28;14.40;99.90
15556;DHT22;7879;48.660;9.116;2023-07-28T02:28:55;14.40;99.90
15556;DHT22;7879;48.660;9.116;2023-07-28T02:31:21;14.40;99.90
15556;DHT22;7879;48.660;9.116;2023-07-28T02:33:48;14.40;99.90
15556;DHT22;7879;48.660;9.116;2023-07-28T02:36:15;14.30;99.90
15556;DHT22;7879;48.660;9.116;2023-07-28T02:38:42;14.30;99.90
15556;DHT22;7879;48.660;9.116;2023-07-28T02:41:08;14.20;99.90
15556;DHT22;7879;48.660;9.116;2023-07-28T02:43:35;14.20;99.90
15556;DHT22;7879;48.660;9.116;2023-07-28T02:46:03;14.20;99.90
15556;DHT22;7879;48.660;9.116;2023-07-28T02:48:30;14.20;99.90
15556;DHT22;7879;48.660;9.116;2023-07-28T02:50:56;14.20;99.90
15556;DHT22;7879;48.660;9.116;2023-07-28T02:53:23;14.20;99.90
15556;DHT22;7879;48.660;9.116;2023-07-28T02:55:50;14.20;99.90
15556;DHT22;7879;48.660;9.116;2023-07-28T02:58:17;14.10;99.90
15556;DHT22;7879;48.660;9.116;2023-07-28T03:00:44;14.20;99.90
15556;DHT22;7879;48.660;9.116;2023-07-28T03:03:13;14.20;99.90
15556;DHT22;7879;48.660;9.116;2023-07-28T03:05:40;14.20;99.90
15556;DHT22;7879;48.660;9.116;2023-07-28T03:08:06;14.20;99.90
15556;DHT22;7879;48.660;9.116;2023-07-28T03:10:33;14.20;99.90
15556;DHT22;7879;48.660;9.116;2023-07-28T03:13:00;14.30;99.90
15556;DHT22;7879;48.660;9.116;2023-07-28T03:15:27;14.20;99.90
15556;DHT22;7879;48.660;9.116;2023-07-28T03:17:54;14.20;99.90
15556;DHT22;7879;48.660;9.116;2023-07-28T03:20:21;14.20;99.90
15556;DHT22;7879;48.660;9.116;2023-07-28T03:22:48;14.20;99.90
15556;DHT22;7879;48.660;9.116;2023-07-28T03:25:15;14.20;99.90
15556;DHT22;7879;48.660;9.116;2023-07-28T03:27:42;14.20;99.90
15556;DHT22;7879;48.660;9.116;2023-07-28T03:30:08;14.30;99.90
15556;DHT22;7879;48.660;9.116;2023-07-28T03:32:37;14.30;99.90
15556;DHT22;7879;48.660;9.116;2023-07-28T03:35:05;14.30;99.90
15556;DHT22;7879;48.660;9.116;2023-07-28T03:37:32;14.30;99.90
15556;DHT22;7879;48.660;9.116;2023-07-28T03:39:59;14.30;99.90
15556;DHT22;7879;48.660;9.116;2023-07-28T03:42:26;14.30;99.90
15556;DHT22;7879;48.660;9.116;2023-07-28T03:44:53;14.30;99.90
15556;DHT22;7879;48.660;9.116;2023-07-28T03:47:20;14.40;99.90
15556;DHT22;7879;48.660;9.116;2023-07-28T03:49:47;14.40;99.90
15556;DHT22;7879;48.660;9.116;2023-07-28T03:52:14;14.40;99.90
15556;DHT22;7879;48.660;9.116;2023-07-28T03:54:41;14.40;99.90
15556;DHT22;7879;48.660;9.116;2023-07-28T03:57:08;14.40;99.90
15556;DHT22;7879;48.660;9.116;2023-07-28T03:59:35;14.40;99.90
15556;DHT22;7879;48.660;9.116;2023-07-28T04:02:02;14.40;99.90
15556;DHT22;7879;48.660;9.116;2023-07-28T04:04:29;14.40;99.90
15556;DHT22;7879;48.660;9.116;2023-07-28T04:06:56;14.40;99.90
15556;DHT22;7879;48.660;9.116;2023-07-28T04:09:23;14.40;99.90
15556;DHT22;7879;48.660;9.116;2023-07-28T04:11:50;14.40;99.90
15556;DHT22;7879;48.660;9.116;2023-07-28T04:14:17;14.50;99.90
15556;DHT22;7879;48.660;9.116;2023-07-28T04:16:43;14.50;99.90
15556;DHT22;7879;48.660;9.116;2023-07-28T04:19:10;14.50;99.90
15556;DHT22;7879;48.660;9.116;2023-07-28T04:21:37;14.50;99.90
15556;DHT22;7879;48.660;9.116;2023-07-28T04:24:08;14.60;99.90
15556;DHT22;7879;48.660;9.116;2023-07-28T04:26:35;14.60;99.90
15556;DHT22;7879;48.660;9.116;2023-07-28T04:29:03;14.50;99.90
15556;DHT22;7879;48.660;9.116;2023-07-28T04:31:30;14.60;99.90
15556;DHT22;7879;48.660;9.116;2023-07-28T04:33:56;14.60;99.90
15556;DHT22;7879;48.660;9.116;2023-07-28T04:36:23;14.70;99.90
15556;DHT22;7879;48.660;9.116;2023-07-28T04:38:50;14.60;99.90
15556;DHT22;7879;48.660;9.116;2023-07-28T04:41:17;14.70;99.90
15556;DHT22;7879;48.660;9.116;2023-07-28T04:43:44;14.70;99.90
15556;DHT22;7879;48.660;9.116;2023-07-28T04:46:10;14.70;99.90
15556;DHT22;7879;48.660;9.116;2023-07-28T04:48:37;14.70;99.90
15556;DHT22;7879;48.660;9.116;2023-07-28T04:51:04;14.70;99.90
15556;DHT22;7879;48.660;9.116;2023-07-28T04:53:31;14.80;99.90
15556;DHT22;7879;48.660;9.116;2023-07-28T04:55:57;14.80;99.90
15556;DHT22;7879;48.660;9.116;2023-07-28T04:58:24;14.80;99.90
15556;DHT22;7879;48.660;9.116;2023-07-28T05:00:51;14.80;99.90
15556;DHT22;7879;48.660;9.116;2023-07-28T05:03:18;14.80;99.90
15556;DHT22;7879;48.660;9.116;2023-07-28T05:05:45;14.80;99.90
15556;DHT22;7879;48.660;9.116;2023-07-28T05:08:12;14.90;99.90
15556;DHT22;7879;48.660;9.116;2023-07-28T05:10:40;14.90;99.90
15556;DHT22;7879;48.660;9.116;2023-07-28T05:13:07;14.90;99.90
15556;DHT22;7879;48.660;9.116;2023-07-28T05:15:33;14.90;99.90
15556;DHT22;7879;48.660;9.116;2023-07-28T05:18:00;14.90;99.90
15556;DHT22;7879;48.660;9.116;2023-07-28T05:20:27;15.00;99.90
15556;DHT22;7879;48.660;9.116;2023-07-28T05:22:54;15.00;99.90
15556;DHT22;7879;48.660;9.116;2023-07-28T05:25:21;15.00;99.90
15556;DHT22;7879;48.660;9.116;2023-07-28T05:27:48;15.10;99.90
15556;DHT22;7879;48.660;9.116;2023-07-28T05:30:15;15.00;99.90
15556;DHT22;7879;48.660;9.116;2023-07-28T05:32:42;15.10;99.90
15556;DHT22;7879;48.660;9.116;2023-07-28T05:35:09;15.10;99.90
15556;DHT22;7879;48.660;9.116;2023-07-28T05:37:36;15.20;99.90
15556;DHT22;7879;48.660;9.116;2023-07-28T05:40:03;15.20;99.90
15556;DHT22;7879;48.660;9.116;2023-07-28T05:42:30;15.20;99.90
15556;DHT22;7879;48.660;9.116;2023-07-28T05:44:56;15.20;99.90
15556;DHT22;7879;48.660;9.116;2023-07-28T05:47:23;15.20;99.90
15556;DHT22;7879;48.660;9.116;2023-07-28T05:49:51;15.20;99.90
15556;DHT22;7879;48.660;9.116;2023-07-28T05:52:20;15.20;99.90
15556;DHT22;7879;48.660;9.116;2023-07-28T05:54:48;15.20;99.90
15556;DHT22;7879;48.660;9.116;2023-07-28T05:57:15;15.20;99.90
15556;DHT22;7879;48.660;9.116;2023-07-28T05:59:42;15.30;99.90
15556;DHT22;7879;48.660;9.116;2023-07-28T06:02:09;15.30;99.90
15556;DHT22;7879;48.660;9.116;2023-07-28T06:04:36;15.40;99.90
15556;DHT22;7879;48.660;9.116;2023-07-28T06:07:02;15.40;99.90
15556;DHT22;7879;48.660;9.116;2023-07-28T06:09:29;15.40;99.90
15556;DHT22;7879;48.660;9.116;2023-07-28T06:11:56;15.50;99.90
15556;DHT22;7879;48.660;9.116;2023-07-28T06:14:23;15.50;99.90
15556;DHT22;7879;48.660;9.116;2023-07-28T06:16:50;15.50;99.90
15556;DHT22;7879;48.660;9.116;2023-07-28T06:19:18;15.50;99.90
15556;DHT22;7879;48.660;9.116;2023-07-28T06:21:50;15.60;99.90
15556;DHT22;7879;48.660;9.116;2023-07-28T06:24:18;15.50;99.90
15556;DHT22;7879;48.660;9.116;2023-07-28T06:26:45;15.60;99.90
15556;DHT22;7879;48.660;9.116;2023-07-28T06:29:12;15.60;99.90
15556;DHT22;7879;48.660;9.116;2023-07-28T06:31:39;15.70;99.90
15556;DHT22;7879;48.660;9.116;2023-07-28T06:34:05;15.60;99.90
15556;DHT22;7879;48.660;9.116;2023-07-28T06:36:33;15.70;99.90
15556;DHT22;7879;48.660;9.116;2023-07-28T06:39:00;15.70;99.90
15556;DHT22;7879;48.660;9.116;2023-07-28T06:41:26;15.70;99.90
15556;DHT22;7879;48.660;9.116;2023-07-28T06:43:53;15.80;99.90
15556;DHT22;7879;48.660;9.116;2023-07-28T06:46:20;15.80;99.90
15556;DHT22;7879;48.660;9.116;2023-07-28T06:48:48;15.80;99.90
15556;DHT22;7879;48.660;9.116;2023-07-28T06:51:15;15.90;99.90
15556;DHT22;7879;48.660;9.116;2023-07-28T06:53:42;15.90;99.90
15556;DHT22;7879;48.660;9.116;2023-07-28T06:56:09;15.90;99.90
15556;DHT22;7879;48.660;9.116;2023-07-28T06:58:36;15.90;99.90
15556;DHT22;7879;48.660;9.116;2023-07-28T07:01:02;16.00;99.90
15556;DHT22;7879;48.660;9.116;2023-07-28T07:03:29;16.10;99.90
15556;DHT22;7879;48.660;9.116;2023-07-28T07:05:56;16.10;99.90
15556;DHT22;7879;48.660;9.116;2023-07-28T07:08:23;16.20;99.90
15556;DHT22;7879;48.660;9.116;2023-07-28T07:10:50;16.30;99.90
15556;DHT22;7879;48.660;9.116;2023-07-28T07:13:17;16.40;99.90
15556;DHT22;7879;48.660;9.116;2023-07-28T07:15:44;16.40;99.90
15556;DHT22;7879;48.660;9.116;2023-07-28T07:18:12;16.50;99.90
15556;DHT22;7879;48.660;9.116;2023-07-28T07:20:39;16.50;99.90
15556;DHT22;7879;48.660;9.116;2023-07-28T07:23:06;16.50;99.90
15556;DHT22;7879;48.660;9.116;2023-07-28T07:25:33;16.50;99.90
15556;DHT22;7879;48.660;9.116;2023-07-28T07:28:00;16.60;99.90
15556;DHT22;7879;48.660;9.116;2023-07-28T07:30:27;16.60;99.90
15556;DHT22;7879;48.660;9.116;2023-07-28T07:32:53;16.60;99.90
15556;DHT22;7879;48.660;9.116;2023-07-28T07:35:20;16.60;99.90
15556;DHT22;7879;48.660;9.116;2023-07-28T07:37:47;16.70;99.90
15556;DHT22;7879;48.660;9.116;2023-07-28T07:40:14;16.70;99.90
15556;DHT22;7879;48.660;9.116;2023-07-28T07:42:47;16.80;99.90
15556;DHT22;7879;48.660;9.116;2023-07-28T07:45:15;16.90;99.90
15556;DHT22;7879;48.660;9.116;2023-07-28T07:47:42;17.00;99.90
15556;DHT22;7879;48.660;9.116;2023-07-28T07:50:10;17.00;99.90
15556;DHT22;7879;48.660;9.116;2023-07-28T07:52:38;17.10;99.90
15556;DHT22;7879;48.660;9.116;2023-07-28T07:55:09;17.10;99.90
15556;DHT22;7879;48.660;9.116;2023-07-28T07:57:38;17.10;99.90
15556;DHT22;7879;48.660;9.116;2023-07-28T08:00:05;17.20;99.90
15556;DHT22;7879;48.660;9.116;2023-07-28T08:02:32;17.20;99.90
15556;DHT22;7879;48.660;9.116;2023-07-28T08:04:59;17.20;99.90
15556;DHT22;7879;48.660;9.116;2023-07-28T08:07:26;17.20;99.90
15556;DHT22;7879;48.660;9.116;2023-07-28T08:09:53;17.20;99.90
15556;DHT22;7879;48.660;9.116;2023-07-28T08:12:20;17.30;99.90
15556;DHT22;7879;48.660;9.116;2023-07-28T08:14:47;17.40;99.90
15556;DHT22;7879;48.660;9.116;2023-07-28T08:17:14;17.50;99.90
15556;DHT22;7879;48.660;9.116;2023-07-28T08:19:41;17.70;99.90
15556;DHT22;7879;48.660;9.116;2023-07-28T08:22:08;17.90;99.90
15556;DHT22;7879;48.660;9.116;2023-07-28T08:24:35;17.90;99.90
15556;DHT22;7879;48.660;9.116;2023-07-28T08:27:02;18.00;99.90
15556;DHT22;7879;48.660;9.116;2023-07-28T08:29:30;18.30;99.90
15556;DHT22;7879;48.660;9.116;2023-07-28T08:31:57;18.40;99.90
15556;DHT22;7879;48.660;9.116;2023-07-28T08:34:23;18.50;99.90
15556;DHT22;7879;48.660;9.116;2023-07-28T08:36:50;18.50;99.90
15556;DHT22;7879;48.660;9.116;2023-07-28T08:39:20;18.50;99.90
15556;DHT22;7879;48.660;9.116;2023-07-28T08:41:47;18.60;99.90
15556;DHT22;7879;48.660;9.116;2023-07-28T08:44:13;18.60;99.90
15556;DHT22;7879;48.660;9.116;2023-07-28T08:46:42;18.60;99.90
15556;DHT22;7879;48.660;9.116;2023-07-28T08:49:08;18.80;99.90
15556;DHT22;7879;48.660;9.116;2023-07-28T08:51:41;19.00;99.90
15556;DHT22;7879;48.660;9.116;2023-07-28T08:54:08;19.30;99.90
15556;DHT22;7879;48.660;9.116;2023-07-28T08:56:35;19.30;99.90
15556;DHT22;7879;48.660;9.116;2023-07-28T08:59:02;19.40;99.90
15556;DHT22;7879;48.660;9.116;2023-07-28T09:01:28;19.40;99.90
15556;DHT22;7879;48.660;9.116;2023-07-28T09:03:56;19.40;99.90
15556;DHT22;7879;48.660;9.116;2023-07-28T09:06:29;19.40;99.90
15556;DHT22;7879;48.660;9.116;2023-07-28T09:08:58;19.30;99.90
15556;DHT22;7879;48.660;9.116;2023-07-28T09:11:25;19.30;99.90
15556;DHT22;7879;48.660;9.116;2023-07-28T09:14:00;19.30;99.90
15556;DHT22;7879;48.660;9.116;2023-07-28T09:16:27;19.30;99.90
15556;DHT22;7879;48.660;9.116;2023-07-28T09:19:06;19.30;99.90
15556;DHT22;7879;48.660;9.116;2023-07-28T09:21:34;19.30;99.90
15556;DHT22;7879;48.660;9.116;2023-07-28T09:24:06;19.30;99.90
15556;DHT22;7879;48.660;9.116;2023-07-28T09:26:42;19.30;99.90
15556;DHT22;7879;48.660;9.116;2023-07-28T09:29:19;19.40;99.90
15556;DHT22;7879;48.660;9.116;2023-07-28T09:31:48;19.50;99.90
15556;DHT22;7879;48.660;9.116;2023-07-28T09:34:28;19.60;99.90
15556;DHT22;7879;48.660;9.116;2023-07-28T09:36:59;19.60;99.90
15556;DHT22;7879;48.660;9.116;2023-07-28T09:39:26;19.60;99.90
15556;DHT22;7879;48.660;9.116;2023-07-28T09:41:54;19.70;99.90
15556;DHT22;7879;48.660;9.116;2023-07-28T09:44:25;19.70;99.90
15556;DHT22;7879;48.660;9.116;2023-07-28T09:46:56;19.70;99.90
15556;DHT22;7879;48.660;9.116;2023-07-28T09:49:37;19.80;99.90
15556;DHT22;7879;48.660;9.116;2023-07-28T09:52:08;19.90;99.90
15556;DHT22;7879;48.660;9.116;2023-07-28T09:54:40;20.10;99.90
15556;DHT22;7879;48.660;9.116;2023-07-28T09:57:20;20.10;99.90
15556;DHT22;7879;48.660;9.116;2023-07-28T09:59:48;20.20;99.90
15556;DHT22;7879;48.660;9.116;2023-07-28T10:02:15;20.20;99.90
15556;DHT22;7879;48.660;9.116;2023-07-28T10:04:43;20.30;99.90
15556;DHT22;7879;48.660;9.116;2023-07-28T10:07:10;20.30;99.90
15556;DHT22;7879;48.660;9.116;2023-07-28T10:09:38;20.40;99.90
15556;DHT22;7879;48.660;9.116;2023-07-28T10:12:05;20.50;99.90
15556;DHT22;7879;48.660;9.116;2023-07-28T10:14:35;20.40;99.90
15556;DHT22;7879;48.660;9.116;2023-07-28T10:17:05;20.40;99.90
15556;DHT22;7879;48.660;9.116;2023-07-28T10:19:36;20.40;99.90
15556;DHT22;7879;48.660;9.116;2023-07-28T10:22:08;20.50;99.90
15556;DHT22;7879;48.660;9.116;2023-07-28T10:25:01;20.60;99.90
15556;DHT22;7879;48.660;9.116;2023-07-28T10:30:21;20.70;99.90
15556;DHT22;7879;48.660;9.116;2023-07-28T10:32:51;20.70;99.90
15556;DHT22;7879;48.660;9.116;2023-07-28T10:37:45;20.80;99.90
15556;DHT22;7879;48.660;9.116;2023-07-28T10:42:57;20.80;99.90
15556;DHT22;7879;48.660;9.116;2023-07-28T10:45:27;20.80;99.90
15556;DHT22;7879;48.660;9.116;2023-07-28T10:47:56;20.90;99.90
15556;DHT22;7879;48.660;9.116;2023-07-28T10:50:23;21.00;99.90
15556;DHT22;7879;48.660;9.116;2023-07-28T10:52:51;21.10;99.90
15556;DHT22;7879;48.660;9.116;2023-07-28T10:55:23;21.20;99.90
15556;DHT22;7879;48.660;9.116;2023-07-28T10:57:52;21.20;99.90
15556;DHT22;7879;48.660;9.116;2023-07-28T11:00:20;21.30;99.90
15556;DHT22;7879;48.660;9.116;2023-07-28T11:02:52;21.30;99.90
15556;DHT22;7879;48.660;9.116;2023-07-28T11:05:30;21.40;99.90
15556;DHT22;7879;48.660;9.116;2023-07-28T11:07:59;21.30;99.90
15556;DHT22;7879;48.660;9.116;2023-07-28T11:10:31;21.30;99.90
15556;DHT22;7879;48.660;9.116;2023-07-28T11:13:00;21.30;99.90
15556;DHT22;7879;48.660;9.116;2023-07-28T11:15:41;21.30;99.90
15556;DHT22;7879;48.660;9.116;2023-07-28T11:18:08;21.20;99.90
15556;DHT22;7879;48.660;9.116;2023-07-28T11:20:36;21.20;99.90
15556;DHT22;7879;48.660;9.116;2023-07-28T11:23:04;21.30;99.90
15556;DHT22;7879;48.660;9.116;2023-07-28T11:25:33;21.30;99.90
15556;DHT22;7879;48.660;9.116;2023-07-28T11:28:03;21.40;99.90
15556;DHT22;7879;48.660;9.116;2023-07-28T11:30:36;21.40;99.90
15556;DHT22;7879;48.660;9.116;2023-07-28T11:33:10;21.50;99.90
15556;DHT22;7879;48.660;9.116;2023-07-28T11:35:39;21.50;99.90
15556;DHT22;7879;48.660;9.116;2023-07-28T11:38:09;21.50;99.90
15556;DHT22;7879;48.660;9.116;2023-07-28T11:40:37;21.50;99.90
15556;DHT22;7879;48.660;9.116;2023-07-28T11:43:04;21.40;99.90
15556;DHT22;7879;48.660;9.116;2023-07-28T11:45:31;21.40;99.90
15556;DHT22;7879;48.660;9.116;2023-07-28T11:50:41;21.20;99.90
15556;DHT22;7879;48.660;9.116;2023-07-28T11:53:09;21.10;99.90
15556;DHT22;7879;48.660;9.116;2023-07-28T11:55:36;21.00;99.90
15556;DHT22;7879;48.660;9.116;2023-07-28T11:58:07;20.90;99.90
15556;DHT22;7879;48.660;9.116;2023-07-28T12:00:36;20.80;99.90
15556;DHT22;7879;48.660;9.116;2023-07-28T12:03:08;20.70;99.90
15556;DHT22;7879;48.660;9.116;2023-07-28T12:06:03;20.60;99.90
15556;DHT22;7879;48.660;9.116;2023-07-28T12:08:35;20.60;99.90
15556;DHT22;7879;48.660;9.116;2023-07-28T12:11:03;20.60;99.90
15556;DHT22;7879;48.660;9.116;2023-07-28T12:13:33;20.60;99.90
15556;DHT22;7879;48.660;9.116;2023-07-28T12:16:47;20.60;99.90
15556;DHT22;7879;48.660;9.116;2023-07-28T12:19:17;20.70;99.90
15556;DHT22;7879;48.660;9.116;2023-07-28T12:21:44;20.70;99.90
15556;DHT22;7879;48.660;9.116;2023-07-28T12:24:11;20.80;99.90
15556;DHT22;7879;48.660;9.116;2023-07-28T12:26:38;20.80;99.90
15556;DHT22;7879;48.660;9.116;2023-07-28T12:29:06;20.90;99.90
15556;DHT22;7879;48.660;9.116;2023-07-28T12:31:37;21.00;99.90
15556;DHT22;7879;48.660;9.116;2023-07-28T12:34:08;21.00;99.90
15556;DHT22;7879;48.660;9.116;2023-07-28T12:36:35;21.10;99.90
15556;DHT22;7879;48.660;9.116;2023-07-28T12:39:05;21.10;99.90
15556;DHT22;7879;48.660;9.116;2023-07-28T12:41:35;21.10;99.90
15556;DHT22;7879;48.660;9.116;2023-07-28T12:44:05;21.20;99.90
15556;DHT22;7879;48.660;9.116;2023-07-28T12:46:32;21.30;99.90
15556;DHT22;7879;48.660;9.116;2023-07-28T12:48:59;21.30;99.90
15556;DHT22;7879;48.660;9.116;2023-07-28T12:51:27;21.30;99.90
15556;DHT22;7879;48.660;9.116;2023-07-28T12:53:57;21.30;99.90
15556;DHT22;7879;48.660;9.116;2023-07-28T12:56:24;21.30;99.90
15556;DHT22;7879;48.660;9.116;2023-07-28T12:58:54;21.40;99.90
15556;DHT22;7879;48.660;9.116;2023-07-28T13:01:23;21.40;99.90
15556;DHT22;7879;48.660;9.116;2023-07-28T13:03:51;21.40;99.90
15556;DHT22;7879;48.660;9.116;2023-07-28T13:06:19;21.40;99.90
15556;DHT22;7879;48.660;9.116;2023-07-28T13:08:46;21.40;99.90
15556;DHT22;7879;48.660;9.116;2023-07-28T13:11:16;21.40;99.90
15556;DHT22;7879;48.660;9.116;2023-07-28T13:13:43;21.40;99.90
15556;DHT22;7879;48.660;9.116;2023-07-28T13:16:10;21.30;99.90
15556;DHT22;7879;48.660;9.116;2023-07-28T13:18:39;21.30;99.90
15556;DHT22;7879;48.660;9.116;2023-07-28T13:21:06;21.30;99.90
15556;DHT22;7879;48.660;9.116;2023-07-28T13:23:33;21.30;99.90
15556;DHT22;7879;48.660;9.116;2023-07-28T13:26:00;21.20;99.90
15556;DHT22;7879;48.660;9.116;2023-07-28T13:28:26;21.10;99.90
15556;DHT22;7879;48.660;9.116;2023-07-28T13:30:53;21.10;99.90
15556;DHT22;7879;48.660;9.116;2023-07-28T13:33:20;21.10;99.90
15556;DHT22;7879;48.660;9.116;2023-07-28T13:35:47;21.10;99.90
15556;DHT22;7879;48.660;9.116;2023-07-28T13:38:14;21.10;99.90
15556;DHT22;7879;48.660;9.116;2023-07-28T13:40:41;21.10;99.90
15556;DHT22;7879;48.660;9.116;2023-07-28T13:43:08;21.00;99.90
15556;DHT22;7879;48.660;9.116;2023-07-28T13:45:42;21.00;99.90
15556;DHT22;7879;48.660;9.116;2023-07-28T13:48:09;20.90;99.90
15556;DHT22;7879;48.660;9.116;2023-07-28T13:50:51;20.80;99.90
15556;DHT22;7879;48.660;9.116;2023-07-28T13:53:21;20.70;99.90
15556;DHT22;7879;48.660;9.116;2023-07-28T13:55:51;20.70;99.90
15556;DHT22;7879;48.660;9.116;2023-07-28T13:58:21;20.60;99.90
15556;DHT22;7879;48.660;9.116;2023-07-28T14:00:48;20.60;99.90
15556;DHT22;7879;48.660;9.116;2023-07-28T14:03:15;20.60;99.90
15556;DHT22;7879;48.660;9.116;2023-07-28T14:05:44;20.60;99.90
15556;DHT22;7879;48.660;9.116;2023-07-28T14:08:11;20.50;99.90
15556;DHT22;7879;48.660;9.116;2023-07-28T14:10:38;20.50;99.90
15556;DHT22;7879;48.660;9.116;2023-07-28T14:13:05;20.40;99.90
15556;DHT22;7879;48.660;9.116;2023-07-28T14:15:32;20.40;99.90
15556;DHT22;7879;48.660;9.116;2023-07-28T14:18:00;20.40;99.90
15556;DHT22;7879;48.660;9.116;2023-07-28T14:20:26;20.50;99.90
15556;DHT22;7879;48.660;9.116;2023-07-28T14:22:53;20.50;99.90
15556;DHT22;7879;48.660;9.116;2023-07-28T14:25:20;20.50;99.90
15556;DHT22;7879;48.660;9.116;2023-07-28T14:27:47;20.50;99.90
15556;DHT22;7879;48.660;9.116;2023-07-28T14:30:14;20.40;99.90
15556;DHT22;7879;48.660;9.116;2023-07-28T14:32:40;20.40;99.90
15556;DHT22;7879;48.660;9.116;2023-07-28T14:35:07;20.40;99.90
15556;DHT22;7879;48.660;9.116;2023-07-28T14:37:34;20.40;99.90
15556;DHT22;7879;48.660;9.116;2023-07-28T14:40:01;20.40;99.90
15556;DHT22;7879;48.660;9.116;2023-07-28T14:42:28;20.30;99.90
15556;DHT22;7879;48.660;9.116;2023-07-28T14:44:55;20.30;99.90
15556;DHT22;7879;48.660;9.116;2023-07-28T14:47:22;20.30;99.90
15556;DHT22;7879;48.660;9.116;2023-07-28T14:49:48;20.30;99.90
15556;DHT22;7879;48.660;9.116;2023-07-28T14:52:15;20.30;99.90
15556;DHT22;7879;48.660;9.116;2023-07-28T14:54:42;20.30;99.90
15556;DHT22;7879;48.660;9.116;2023-07-28T14:57:09;20.30;99.90
15556;DHT22;7879;48.660;9.116;2023-07-28T15:00:00;20.30;99.90
15556;DHT22;7879;48.660;9.116;2023-07-28T15:02:27;20.30;99.90
15556;DHT22;7879;48.660;9.116;2023-07-28T15:04:53;20.40;99.90
15556;DHT22;7879;48.660;9.116;2023-07-28T15:07:20;20.40;99.90
15556;DHT22;7879;48.660;9.116;2023-07-28T15:09:49;20.50;99.90
15556;DHT22;7879;48.660;9.116;2023-07-28T15:12:16;20.60;99.90
15556;DHT22;7879;48.660;9.116;2023-07-28T15:14:42;20.50;99.90
15556;DHT22;7879;48.660;9.116;2023-07-28T15:17:09;20.50;99.90
15556;DHT22;7879;48.660;9.116;2023-07-28T15:19:36;20.60;99.90
15556;DHT22;7879;48.660;9.116;2023-07-28T15:22:03;20.60;99.90
15556;DHT22;7879;48.660;9.116;2023-07-28T15:24:30;20.60;99.90
15556;DHT22;7879;48.660;9.116;2023-07-28T15:26:57;20.50;99.90
15556;DHT22;7879;48.660;9.116;2023-07-28T15:29:24;20.50;99.90
15556;DHT22;7879;48.660;9.116;2023-07-28T15:31:51;20.50;99.90
15556;DHT22;7879;48.660;9.116;2023-07-28T15:34:20;20.50;99.90
15556;DHT22;7879;48.660;9.116;2023-07-28T15:36:48;20.40;99.90
15556;DHT22;7879;48.660;9.116;2023-07-28T15:39:15;20.40;99.90
15556;DHT22;7879;48.660;9.116;2023-07-28T15:41:42;20.40;99.90
15556;DHT22;7879;48.660;9.116;2023-07-28T15:44:08;20.30;99.90
15556;DHT22;7879;48.660;9.116;2023-07-28T15:46:36;20.30;99.90
15556;DHT22;7879;48.660;9.116;2023-07-28T15:49:04;20.30;99.90
15556;DHT22;7879;48.660;9.116;2023-07-28T15:51:31;20.30;99.90
15556;DHT22;7879;48.660;9.116;2023-07-28T15:53:59;20.40;99.90
15556;DHT22;7879;48.660;9.116;2023-07-28T15:56:25;20.40;99.90
15556;DHT22;7879;48.660;9.116;2023-07-28T15:58:52;20.50;99.90
15556;DHT22;7879;48.660;9.116;2023-07-28T16:01:19;20.50;99.90
15556;DHT22;7879;48.660;9.116;2023-07-28T16:03:46;20.50;99.90